sensor_id;sensor_type;location;lat;lon;timestamp;pressure;altitude;pressure_sealevel;temperature;humidity
21203;BME280;10759;51.982;9.232;2023-04-06T00:01:04;100601.50;;;0.44;83.64
21203;BME280;10759;51.982;9.232;2023-04-06T00:03:32;100731.25;;;1.15;83.45
21203;BME280;10759;51.982;9.232;2023-04-06T00:06:00;100634.13;;;0.55;83.50
21203;BME280;10759;51.982;9.232;2023-04-06T00:08:28;100740.03;;;1.06;83.82
21203;BME280;10759;51.982;9.232;2023-04-06T00:10:57;100726.81;;;1.04;84.11
21203;BME280;10759;51.982;9.232;2023-04-06T00:13:25;100731.19;;;1.05;84.50
21203;BME280;10759;51.982;9.232;2023-04-06T00:15:53;100726.78;;;1.01;84.56
21203;BME280;10759;51.982;9.232;2023-04-06T00:18:22;100684.41;;;0.80;84.57
21203;BME280;10759;51.982;9.232;2023-04-06T00:20:50;100718.03;;;1.09;84.62
21203;BME280;10759;51.982;9.232;2023-04-06T00:23:18;100699.41;;;0.87;84.06
21203;BME280;10759;51.982;9.232;2023-04-06T00:25:46;100685.31;;;0.79;84.57
21203;BME280;10759;51.982;9.232;2023-04-06T00:28:15;100714.44;;;0.94;84.60
21203;BME280;10759;51.982;9.232;2023-04-06T00:30:43;100702.09;;;0.93;84.80
21203;BME280;10759;51.982;9.232;2023-04-06T00:33:11;100712.72;;;1.04;84.06
21203;BME280;10759;51.982;9.232;2023-04-06T00:35:40;100692.34;;;0.86;84.04
21203;BME280;10759;51.982;9.232;2023-04-06T00:38:08;100709.16;;;1.00;84.37
21203;BME280;10759;51.982;9.232;2023-04-06T00:40:36;100391.38;;;-1.05;84.00
21203;BME280;10759;51.982;9.232;2023-04-06T00:43:06;100709.88;;;0.76;84.59
21203;BME280;10759;51.982;9.232;2023-04-06T00:45:38;100690.53;;;0.76;83.44
21203;BME280;10759;51.982;9.232;2023-04-06T00:48:06;100701.97;;;0.72;84.24
21203;BME280;10759;51.982;9.232;2023-04-06T00:50:35;100701.97;;;0.72;84.23
21203;BME280;10759;51.982;9.232;2023-04-06T00:53:03;100700.19;;;0.74;84.67
21203;BME280;10759;51.982;9.232;2023-04-06T00:55:31;100671.97;;;0.63;83.80
21203;BME280;10759;51.982;9.232;2023-04-06T00:58:01;100689.69;;;0.80;84.62
21203;BME280;10759;51.982;9.232;2023-04-06T01:00:34;100692.34;;;0.83;84.64
21203;BME280;10759;51.982;9.232;2023-04-06T01:03:04;100653.50;;;0.60;83.84
21203;BME280;10759;51.982;9.232;2023-04-06T01:05:38;100680.09;;;0.91;83.31
21203;BME280;10759;51.982;9.232;2023-04-06T01:08:16;100642.03;;;0.55;84.14
21203;BME280;10759;51.982;9.232;2023-04-06T01:10:45;100629.66;;;0.42;84.24
21203;BME280;10759;51.982;9.232;2023-04-06T01:13:25;100660.47;;;0.54;85.28
21203;BME280;10759;51.982;9.232;2023-04-06T01:15:58;100662.25;;;0.52;85.87
21203;BME280;10759;51.982;9.232;2023-04-06T01:18:47;100633.97;;;0.32;85.54
21203;BME280;10759;51.982;9.232;2023-04-06T01:21:18;100661.28;;;0.43;85.60
21203;BME280;10759;51.982;9.232;2023-04-06T01:24:24;100645.38;;;0.33;86.30
21203;BME280;10759;51.982;9.232;2023-04-06T01:27:10;100676.25;;;0.46;86.05
21203;BME280;10759;51.982;9.232;2023-04-06T01:30:00;100627.72;;;0.21;85.27
21203;BME280;10759;51.982;9.232;2023-04-06T01:32:57;100640.03;;;0.20;85.10
21203;BME280;10759;51.982;9.232;2023-04-06T01:35:41;100658.63;;;0.37;85.21
21203;BME280;10759;51.982;9.232;2023-04-06T01:38:13;100654.22;;;0.41;85.15
21203;BME280;10759;51.982;9.232;2023-04-06T01:40:44;100656.84;;;0.38;85.29
21203;BME280;10759;51.982;9.232;2023-04-06T01:43:12;100641.06;;;0.39;84.82
21203;BME280;10759;51.982;9.232;2023-04-06T01:46:07;100651.66;;;0.49;84.75
21203;BME280;10759;51.982;9.232;2023-04-06T01:48:39;100636.63;;;0.35;84.56
21203;BME280;10759;51.982;9.232;2023-04-06T01:51:16;100648.81;;;0.24;84.89
21203;BME280;10759;51.982;9.232;2023-04-06T01:54:10;100651.41;;;0.18;85.83
21203;BME280;10759;51.982;9.232;2023-04-06T01:56:58;100595.88;;;-0.07;85.57
21203;BME280;10759;51.982;9.232;2023-04-06T01:59:52;100653.19;;;0.19;85.48
21203;BME280;10759;51.982;9.232;2023-04-06T02:02:26;100645.31;;;0.24;85.47
21203;BME280;10759;51.982;9.232;2023-04-06T02:05:06;100647.97;;;0.25;85.01
21203;BME280;10759;51.982;9.232;2023-04-06T02:07:35;100628.56;;;0.18;85.87
21203;BME280;10759;51.982;9.232;2023-04-06T02:10:04;100615.28;;;0.03;85.51
21203;BME280;10759;51.982;9.232;2023-04-06T02:12:39;100647.03;;;0.18;86.32
21203;BME280;10759;51.982;9.232;2023-04-06T02:15:12;100644.38;;;0.18;86.03
21203;BME280;10759;51.982;9.232;2023-04-06T02:17:42;100652.28;;;0.15;86.13
21203;BME280;10759;51.982;9.232;2023-04-06T02:20:10;100642.53;;;0.10;85.93
21203;BME280;10759;51.982;9.232;2023-04-06T02:22:38;100600.28;;;-0.01;85.44
21203;BME280;10759;51.982;9.232;2023-04-06T02:25:07;100587.84;;;-0.17;85.79
21203;BME280;10759;51.982;9.232;2023-04-06T02:27:35;100639.13;;;0.18;85.40
21203;BME280;10759;51.982;9.232;2023-04-06T02:30:07;100639.16;;;0.23;86.06
21203;BME280;10759;51.982;9.232;2023-04-06T02:32:35;100615.25;;;0.00;85.58
21203;BME280;10759;51.982;9.232;2023-04-06T02:35:04;100642.47;;;0.02;85.75
21203;BME280;10759;51.982;9.232;2023-04-06T02:37:33;100648.56;;;-0.05;86.63
21203;BME280;10759;51.982;9.232;2023-04-06T02:40:02;100582.44;;;-0.33;86.34
21203;BME280;10759;51.982;9.232;2023-04-06T02:42:31;100632.69;;;-0.14;85.49
21203;BME280;10759;51.982;9.232;2023-04-06T02:44:59;100630.16;;;-0.01;85.83
21203;BME280;10759;51.982;9.232;2023-04-06T02:47:33;100622.94;;;-0.23;85.54
21203;BME280;10759;51.982;9.232;2023-04-06T02:50:02;100503.09;;;-0.70;85.61
21203;BME280;10759;51.982;9.232;2023-04-06T02:52:34;100612.38;;;-0.26;85.59
21203;BME280;10759;51.982;9.232;2023-04-06T02:55:03;100586.69;;;-0.49;85.27
21203;BME280;10759;51.982;9.232;2023-04-06T02:57:31;100589.41;;;-0.41;85.55
21203;BME280;10759;51.982;9.232;2023-04-06T02:59:59;100577.91;;;-0.49;86.06
21203;BME280;10759;51.982;9.232;2023-04-06T03:02:37;100638.88;;;-0.09;85.18
21203;BME280;10759;51.982;9.232;2023-04-06T03:05:09;100635.34;;;-0.11;84.83
21203;BME280;10759;51.982;9.232;2023-04-06T03:07:41;100630.22;;;0.03;84.45
21203;BME280;10759;51.982;9.232;2023-04-06T03:10:15;100632.56;;;-0.27;84.49
21203;BME280;10759;51.982;9.232;2023-04-06T03:12:45;100633.53;;;-0.17;84.69
21203;BME280;10759;51.982;9.232;2023-04-06T03:15:20;100635.13;;;-0.30;85.11
21203;BME280;10759;51.982;9.232;2023-04-06T03:17:59;100633.50;;;-0.22;85.67
21203;BME280;10759;51.982;9.232;2023-04-06T03:20:36;100628.28;;;-0.17;85.38
21203;BME280;10759;51.982;9.232;2023-04-06T03:23:04;100634.47;;;-0.09;85.92
21203;BME280;10759;51.982;9.232;2023-04-06T03:25:36;100625.72;;;-0.09;85.71
21203;BME280;10759;51.982;9.232;2023-04-06T03:28:08;100589.50;;;-0.27;85.83
21203;BME280;10759;51.982;9.232;2023-04-06T03:30:46;100616.91;;;-0.08;85.32
21203;BME280;10759;51.982;9.232;2023-04-06T03:33:19;100607.41;;;0.12;85.11
21203;BME280;10759;51.982;9.232;2023-04-06T03:35:52;100618.00;;;0.17;84.37
21203;BME280;10759;51.982;9.232;2023-04-06T03:38:23;100621.44;;;0.07;85.32
21203;BME280;10759;51.982;9.232;2023-04-06T03:40:52;100607.28;;;-0.06;85.68
21203;BME280;10759;51.982;9.232;2023-04-06T03:43:24;100620.56;;;0.06;85.34
21203;BME280;10759;51.982;9.232;2023-04-06T03:45:52;100628.50;;;0.08;85.11
21203;BME280;10759;51.982;9.232;2023-04-06T03:48:22;100613.44;;;-0.03;86.21
21203;BME280;10759;51.982;9.232;2023-04-06T03:50:50;100620.53;;;0.03;85.49
21203;BME280;10759;51.982;9.232;2023-04-06T03:53:17;100593.22;;;-0.10;85.64
21203;BME280;10759;51.982;9.232;2023-04-06T03:55:45;100626.56;;;-0.10;85.10
21203;BME280;10759;51.982;9.232;2023-04-06T03:58:13;100610.66;;;-0.21;85.87
21203;BME280;10759;51.982;9.232;2023-04-06T04:00:41;100626.50;;;-0.16;86.34
21203;BME280;10759;51.982;9.232;2023-04-06T04:03:09;100625.44;;;-0.37;85.22
21203;BME280;10759;51.982;9.232;2023-04-06T04:05:39;100620.06;;;-0.45;85.51
21203;BME280;10759;51.982;9.232;2023-04-06T04:08:08;100635.91;;;-0.40;86.09
21203;BME280;10759;51.982;9.232;2023-04-06T04:10:36;100634.06;;;-0.47;85.85
21203;BME280;10759;51.982;9.232;2023-04-06T04:13:03;100586.38;;;-0.78;86.57
21203;BME280;10759;51.982;9.232;2023-04-06T04:15:32;100641.13;;;-0.46;86.19
21203;BME280;10759;51.982;9.232;2023-04-06T04:18:00;100640.16;;;-0.53;86.70
21203;BME280;10759;51.982;9.232;2023-04-06T04:20:28;100641.97;;;-0.47;86.57
21203;BME280;10759;51.982;9.232;2023-04-06T04:22:57;100560.75;;;-0.91;86.34
21203;BME280;10759;51.982;9.232;2023-04-06T04:25:28;100612.88;;;-0.59;86.66
21203;BME280;10759;51.982;9.232;2023-04-06T04:27:56;100642.97;;;-0.39;86.24
21203;BME280;10759;51.982;9.232;2023-04-06T04:30:24;100631.59;;;-0.36;85.92
21203;BME280;10759;51.982;9.232;2023-04-06T04:32:52;100633.34;;;-0.37;86.29
21203;BME280;10759;51.982;9.232;2023-04-06T04:35:22;100636.78;;;-0.43;86.30
21203;BME280;10759;51.982;9.232;2023-04-06T04:37:50;100639.47;;;-0.35;85.61
21203;BME280;10759;51.982;9.232;2023-04-06T04:40:20;100634.19;;;-0.38;86.33
21203;BME280;10759;51.982;9.232;2023-04-06T04:42:57;100614.91;;;-0.37;85.56
21203;BME280;10759;51.982;9.232;2023-04-06T04:45:31;100574.16;;;-0.71;86.06
21203;BME280;10759;51.982;9.232;2023-04-06T04:48:06;100579.53;;;-0.60;86.19
21203;BME280;10759;51.982;9.232;2023-04-06T04:50:47;100638.69;;;-0.28;85.66
21203;BME280;10759;51.982;9.232;2023-04-06T04:53:16;100639.81;;;-0.04;85.48
21203;BME280;10759;51.982;9.232;2023-04-06T04:55:46;100560.22;;;-0.59;85.60
21203;BME280;10759;51.982;9.232;2023-04-06T04:58:15;100633.47;;;-0.25;84.97
21203;BME280;10759;51.982;9.232;2023-04-06T05:00:57;100642.13;;;-0.36;85.96
21203;BME280;10759;51.982;9.232;2023-04-06T05:03:26;100632.38;;;-0.42;85.70
21203;BME280;10759;51.982;9.232;2023-04-06T05:06:01;100558.22;;;-0.85;86.08
21203;BME280;10759;51.982;9.232;2023-04-06T05:08:33;100636.78;;;-0.41;85.55
21203;BME280;10759;51.982;9.232;2023-04-06T05:11:03;100638.41;;;-0.52;85.80
21203;BME280;10759;51.982;9.232;2023-04-06T05:13:38;100638.56;;;-0.38;86.32
21203;BME280;10759;51.982;9.232;2023-04-06T05:16:12;100628.91;;;-0.41;86.49
21203;BME280;10759;51.982;9.232;2023-04-06T05:18:40;100584.81;;;-0.57;86.63
21203;BME280;10759;51.982;9.232;2023-04-06T05:21:09;100602.63;;;-0.33;86.02
21203;BME280;10759;51.982;9.232;2023-04-06T05:23:58;100620.34;;;-0.18;86.20
21203;BME280;10759;51.982;9.232;2023-04-06T05:26:32;100597.53;;;-0.16;86.53
21203;BME280;10759;51.982;9.232;2023-04-06T05:29:06;100635.56;;;0.13;85.61
21203;BME280;10759;51.982;9.232;2023-04-06T05:31:36;100617.06;;;0.09;86.38
21203;BME280;10759;51.982;9.232;2023-04-06T05:34:05;100625.94;;;0.18;85.69
21203;BME280;10759;51.982;9.232;2023-04-06T05:36:35;100620.75;;;0.31;85.72
21203;BME280;10759;51.982;9.232;2023-04-06T05:39:13;100615.47;;;0.28;85.61
21203;BME280;10759;51.982;9.232;2023-04-06T05:41:49;100620.72;;;0.23;86.14
21203;BME280;10759;51.982;9.232;2023-04-06T05:44:28;100622.38;;;0.13;86.65
21203;BME280;10759;51.982;9.232;2023-04-06T05:47:05;100619.91;;;0.36;86.57
21203;BME280;10759;51.982;9.232;2023-04-06T05:49:36;100621.66;;;0.33;86.48
21203;BME280;10759;51.982;9.232;2023-04-06T05:52:09;100629.66;;;0.42;86.59
21203;BME280;10759;51.982;9.232;2023-04-06T05:54:38;100447.25;;;-0.36;86.30
21203;BME280;10759;51.982;9.232;2023-04-06T05:57:08;100605.91;;;0.43;87.43
21203;BME280;10759;51.982;9.232;2023-04-06T05:59:36;100631.50;;;0.61;87.06
21203;BME280;10759;51.982;9.232;2023-04-06T06:02:05;100628.97;;;0.75;87.75
21203;BME280;10759;51.982;9.232;2023-04-06T06:04:38;100626.50;;;1.04;88.27
21203;BME280;10759;51.982;9.232;2023-04-06T06:07:06;100594.00;;;1.19;87.00
21203;BME280;10759;51.982;9.232;2023-04-06T06:09:43;100627.63;;;1.76;85.35
21203;BME280;10759;51.982;9.232;2023-04-06T06:12:20;100633.72;;;1.52;84.73
21203;BME280;10759;51.982;9.232;2023-04-06T06:14:49;100631.03;;;1.35;85.79
21203;BME280;10759;51.982;9.232;2023-04-06T06:17:18;100624.94;;;1.65;85.09
21203;BME280;10759;51.982;9.232;2023-04-06T06:19:47;100625.88;;;2.04;82.44
21203;BME280;10759;51.982;9.232;2023-04-06T06:22:15;100626.78;;;2.27;80.27
21203;BME280;10759;51.982;9.232;2023-04-06T06:24:46;100628.56;;;2.31;79.33
21203;BME280;10759;51.982;9.232;2023-04-06T06:27:17;100572.13;;;2.31;78.49
21203;BME280;10759;51.982;9.232;2023-04-06T06:29:48;100600.31;;;2.61;76.60
21203;BME280;10759;51.982;9.232;2023-04-06T06:32:17;100626.72;;;2.89;75.92
21203;BME280;10759;51.982;9.232;2023-04-06T06:34:49;100623.09;;;3.05;74.79
21203;BME280;10759;51.982;9.232;2023-04-06T06:37:18;100631.88;;;3.19;74.95
21203;BME280;10759;51.982;9.232;2023-04-06T06:39:47;100572.81;;;3.08;73.92
21203;BME280;10759;51.982;9.232;2023-04-06T06:42:16;100614.13;;;3.43;73.25
21203;BME280;10759;51.982;9.232;2023-04-06T06:45:12;100634.34;;;3.61;73.51
21203;BME280;10759;51.982;9.232;2023-04-06T06:47:40;100630.75;;;3.74;74.89
21203;BME280;10759;51.982;9.232;2023-04-06T06:50:10;100564.78;;;3.17;74.37
21203;BME280;10759;51.982;9.232;2023-04-06T06:52:39;100535.66;;;3.23;75.50
21203;BME280;10759;51.982;9.232;2023-04-06T06:55:09;100621.94;;;3.72;74.85
21203;BME280;10759;51.982;9.232;2023-04-06T06:57:37;100607.69;;;3.87;75.36
21203;BME280;10759;51.982;9.232;2023-04-06T07:00:08;100616.25;;;4.24;74.33
21203;BME280;10759;51.982;9.232;2023-04-06T07:02:41;100608.97;;;4.48;73.27
21203;BME280;10759;51.982;9.232;2023-04-06T07:05:09;100531.44;;;4.15;69.82
21203;BME280;10759;51.982;9.232;2023-04-06T07:07:54;100612.19;;;4.81;66.47
21203;BME280;10759;51.982;9.232;2023-04-06T07:10:23;100606.78;;;4.87;65.14
21203;BME280;10759;51.982;9.232;2023-04-06T07:12:51;100622.56;;;5.02;59.90
21203;BME280;10759;51.982;9.232;2023-04-06T07:15:19;100619.84;;;5.10;57.94
21203;BME280;10759;51.982;9.232;2023-04-06T07:17:49;100620.41;;;5.35;60.73
21203;BME280;10759;51.982;9.232;2023-04-06T07:20:19;100593.84;;;5.33;57.31
21203;BME280;10759;51.982;9.232;2023-04-06T07:22:47;100600.94;;;5.31;57.65
21203;BME280;10759;51.982;9.232;2023-04-06T07:25:15;100616.31;;;5.76;55.30
21203;BME280;10759;51.982;9.232;2023-04-06T07:27:43;100531.28;;;5.08;57.76
21203;BME280;10759;51.982;9.232;2023-04-06T07:30:11;100619.59;;;5.95;55.70
21203;BME280;10759;51.982;9.232;2023-04-06T07:32:39;100620.50;;;5.94;55.79
21203;BME280;10759;51.982;9.232;2023-04-06T07:35:09;100621.72;;;6.30;56.14
21203;BME280;10759;51.982;9.232;2023-04-06T07:37:38;100613.31;;;6.55;54.53
21203;BME280;10759;51.982;9.232;2023-04-06T07:40:07;100606.19;;;6.55;52.87
21203;BME280;10759;51.982;9.232;2023-04-06T07:42:36;100609.19;;;6.85;56.50
21203;BME280;10759;51.982;9.232;2023-04-06T07:45:09;100606.63;;;6.80;52.58
21203;BME280;10759;51.982;9.232;2023-04-06T07:47:37;100614.31;;;6.48;52.66
21203;BME280;10759;51.982;9.232;2023-04-06T07:50:07;100608.09;;;6.95;52.85
21203;BME280;10759;51.982;9.232;2023-04-06T07:52:36;100612.47;;;6.99;53.97
21203;BME280;10759;51.982;9.232;2023-04-06T07:55:05;100489.75;;;6.63;52.71
21203;BME280;10759;51.982;9.232;2023-04-06T07:57:33;100608.13;;;7.39;51.68
21203;BME280;10759;51.982;9.232;2023-04-06T08:00:02;100608.13;;;7.79;52.59
21203;BME280;10759;51.982;9.232;2023-04-06T08:02:37;100604.75;;;7.71;51.41
21203;BME280;10759;51.982;9.232;2023-04-06T08:05:06;100588.22;;;7.92;50.62
21203;BME280;10759;51.982;9.232;2023-04-06T08:07:36;100603.94;;;8.05;48.17
21203;BME280;10759;51.982;9.232;2023-04-06T08:10:04;100596.22;;;8.30;47.53
21203;BME280;10759;51.982;9.232;2023-04-06T08:12:33;100596.63;;;8.50;46.27
21203;BME280;10759;51.982;9.232;2023-04-06T08:15:01;100553.25;;;8.41;47.62
21203;BME280;10759;51.982;9.232;2023-04-06T08:17:31;100574.63;;;8.41;47.27
21203;BME280;10759;51.982;9.232;2023-04-06T08:20:00;100578.59;;;8.58;46.00
21203;BME280;10759;51.982;9.232;2023-04-06T08:22:29;100587.34;;;8.65;47.63
21203;BME280;10759;51.982;9.232;2023-04-06T08:24:59;100589.31;;;8.91;46.34
21203;BME280;10759;51.982;9.232;2023-04-06T08:27:27;100584.59;;;9.01;47.06
21203;BME280;10759;51.982;9.232;2023-04-06T08:29:55;100581.63;;;9.10;44.56
21203;BME280;10759;51.982;9.232;2023-04-06T08:32:23;100574.44;;;9.12;44.99
21203;BME280;10759;51.982;9.232;2023-04-06T08:34:53;100553.63;;;9.23;45.61
21203;BME280;10759;51.982;9.232;2023-04-06T08:37:21;100578.22;;;9.64;45.38
21203;BME280;10759;51.982;9.232;2023-04-06T08:39:49;100570.31;;;9.61;43.18
21203;BME280;10759;51.982;9.232;2023-04-06T08:42:20;100579.03;;;9.68;44.62
21203;BME280;10759;51.982;9.232;2023-04-06T08:44:49;100575.41;;;9.69;44.52
21203;BME280;10759;51.982;9.232;2023-04-06T08:47:19;100567.88;;;9.82;43.37
21203;BME280;10759;51.982;9.232;2023-04-06T08:49:50;100568.31;;;9.96;44.49
21203;BME280;10759;51.982;9.232;2023-04-06T08:52:18;100561.97;;;9.99;42.00
21203;BME280;10759;51.982;9.232;2023-04-06T08:54:47;100568.00;;;10.05;42.64
21203;BME280;10759;51.982;9.232;2023-04-06T08:57:15;100558.06;;;10.09;42.14
21203;BME280;10759;51.982;9.232;2023-04-06T08:59:45;100559.84;;;10.10;40.89
21203;BME280;10759;51.982;9.232;2023-04-06T09:02:17;100548.25;;;10.09;42.45
21203;BME280;10759;51.982;9.232;2023-04-06T09:04:48;100554.44;;;10.12;42.40
21203;BME280;10759;51.982;9.232;2023-04-06T09:07:16;100541.22;;;10.05;41.40
21203;BME280;10759;51.982;9.232;2023-04-06T09:09:44;100558.38;;;10.28;41.58
21203;BME280;10759;51.982;9.232;2023-04-06T09:12:25;100547.16;;;10.15;41.22
21203;BME280;10759;51.982;9.232;2023-04-06T09:14:56;100552.09;;;10.27;41.18
21203;BME280;10759;51.982;9.232;2023-04-06T09:17:26;100553.78;;;10.31;40.98
21203;BME280;10759;51.982;9.232;2023-04-06T09:19:54;100553.53;;;10.64;41.32
21203;BME280;10759;51.982;9.232;2023-04-06T09:22:23;100547.75;;;10.51;41.30
21203;BME280;10759;51.982;9.232;2023-04-06T09:24:53;100544.09;;;10.54;39.95
21203;BME280;10759;51.982;9.232;2023-04-06T09:27:30;100548.84;;;10.71;40.97
21203;BME280;10759;51.982;9.232;2023-04-06T09:30:09;100546.16;;;10.71;40.07
21203;BME280;10759;51.982;9.232;2023-04-06T09:32:48;100546.59;;;10.59;40.17
21203;BME280;10759;51.982;9.232;2023-04-06T09:35:17;100548.34;;;10.85;41.62
21203;BME280;10759;51.982;9.232;2023-04-06T09:37:47;100436.13;;;10.50;40.03
21203;BME280;10759;51.982;9.232;2023-04-06T09:40:15;100503.63;;;10.85;39.85
21203;BME280;10759;51.982;9.232;2023-04-06T09:42:45;100520.97;;;11.00;41.19
21203;BME280;10759;51.982;9.232;2023-04-06T09:45:15;100550.50;;;11.22;40.37
21203;BME280;10759;51.982;9.232;2023-04-06T09:47:45;100537.00;;;11.25;40.01
21203;BME280;10759;51.982;9.232;2023-04-06T09:50:14;100537.44;;;11.60;39.09
21203;BME280;10759;51.982;9.232;2023-04-06T09:52:47;100535.97;;;11.51;38.22
21203;BME280;10759;51.982;9.232;2023-04-06T09:55:22;100529.38;;;11.60;39.65
21203;BME280;10759;51.982;9.232;2023-04-06T09:57:57;100537.66;;;11.54;39.18
21203;BME280;10759;51.982;9.232;2023-04-06T10:00:29;100534.75;;;11.60;39.70
21203;BME280;10759;51.982;9.232;2023-04-06T10:03:02;100538.63;;;11.53;38.66
21203;BME280;10759;51.982;9.232;2023-04-06T10:05:39;100501.53;;;11.41;38.74
21203;BME280;10759;51.982;9.232;2023-04-06T10:08:10;100526.75;;;11.58;38.70
21203;BME280;10759;51.982;9.232;2023-04-06T10:10:38;100531.63;;;11.71;38.47
21203;BME280;10759;51.982;9.232;2023-04-06T10:13:07;100508.84;;;11.59;38.96
21203;BME280;10759;51.982;9.232;2023-04-06T10:15:39;100528.91;;;11.49;39.18
21203;BME280;10759;51.982;9.232;2023-04-06T10:18:08;100513.22;;;11.39;39.07
21203;BME280;10759;51.982;9.232;2023-04-06T10:20:41;100469.59;;;11.11;39.43
21203;BME280;10759;51.982;9.232;2023-04-06T10:23:13;100518.53;;;11.63;39.25
21203;BME280;10759;51.982;9.232;2023-04-06T10:25:53;100525.84;;;11.59;39.10
21203;BME280;10759;51.982;9.232;2023-04-06T10:28:22;100498.72;;;11.66;39.74
21203;BME280;10759;51.982;9.232;2023-04-06T10:30:58;100500.41;;;11.68;39.42
21203;BME280;10759;51.982;9.232;2023-04-06T10:33:28;100518.34;;;11.68;39.17
21203;BME280;10759;51.982;9.232;2023-04-06T10:35:57;100511.47;;;11.82;40.84
21203;BME280;10759;51.982;9.232;2023-04-06T10:38:34;100508.38;;;11.93;40.25
21203;BME280;10759;51.982;9.232;2023-04-06T10:41:09;100512.41;;;11.81;39.17
21203;BME280;10759;51.982;9.232;2023-04-06T10:43:38;100506.63;;;11.92;39.47
21203;BME280;10759;51.982;9.232;2023-04-06T10:46:10;100505.66;;;12.15;40.72
21203;BME280;10759;51.982;9.232;2023-04-06T10:48:39;100504.84;;;12.13;40.33
21203;BME280;10759;51.982;9.232;2023-04-06T10:51:09;100487.38;;;12.03;39.15
21203;BME280;10759;51.982;9.232;2023-04-06T10:53:37;100501.75;;;12.02;39.69
21203;BME280;10759;51.982;9.232;2023-04-06T10:56:09;100455.41;;;11.53;39.42
21203;BME280;10759;51.982;9.232;2023-04-06T10:58:38;100484.19;;;11.71;39.94
21203;BME280;10759;51.982;9.232;2023-04-06T11:01:14;100480.44;;;11.75;39.25
21203;BME280;10759;51.982;9.232;2023-04-06T11:03:43;100484.00;;;11.98;40.00
21203;BME280;10759;51.982;9.232;2023-04-06T11:06:18;100488.00;;;12.10;38.87
21203;BME280;10759;51.982;9.232;2023-04-06T11:08:46;100485.78;;;11.99;39.28
21203;BME280;10759;51.982;9.232;2023-04-06T11:11:16;100483.63;;;12.07;41.86
21203;BME280;10759;51.982;9.232;2023-04-06T11:13:46;100489.28;;;12.21;40.63
21203;BME280;10759;51.982;9.232;2023-04-06T11:16:17;100482.00;;;12.03;39.75
21203;BME280;10759;51.982;9.232;2023-04-06T11:18:50;100470.44;;;12.01;39.84
21203;BME280;10759;51.982;9.232;2023-04-06T11:21:19;100460.28;;;12.09;39.34
21203;BME280;10759;51.982;9.232;2023-04-06T11:23:47;100477.19;;;12.32;40.74
21203;BME280;10759;51.982;9.232;2023-04-06T11:26:15;100472.97;;;12.46;39.50
21203;BME280;10759;51.982;9.232;2023-04-06T11:28:43;100477.78;;;12.59;40.04
21203;BME280;10759;51.982;9.232;2023-04-06T11:31:11;100466.06;;;12.41;40.21
21203;BME280;10759;51.982;9.232;2023-04-06T11:33:41;100458.09;;;12.38;38.71
21203;BME280;10759;51.982;9.232;2023-04-06T11:36:09;100422.94;;;12.23;38.62
21203;BME280;10759;51.982;9.232;2023-04-06T11:38:38;100358.53;;;11.59;38.96
21203;BME280;10759;51.982;9.232;2023-04-06T11:41:07;100455.44;;;12.17;37.40
21203;BME280;10759;51.982;9.232;2023-04-06T11:43:35;100452.06;;;12.33;38.34
21203;BME280;10759;51.982;9.232;2023-04-06T11:46:03;100445.91;;;12.31;39.73
21203;BME280;10759;51.982;9.232;2023-04-06T11:48:45;100439.56;;;12.52;38.88
21203;BME280;10759;51.982;9.232;2023-04-06T11:51:20;100452.44;;;12.64;38.62
21203;BME280;10759;51.982;9.232;2023-04-06T11:53:49;100448.53;;;12.72;37.27
21203;BME280;10759;51.982;9.232;2023-04-06T11:56:25;100443.56;;;12.62;36.11
21203;BME280;10759;51.982;9.232;2023-04-06T11:58:54;100437.41;;;12.40;35.74
21203;BME280;10759;51.982;9.232;2023-04-06T12:01:23;100422.72;;;12.49;37.12
21203;BME280;10759;51.982;9.232;2023-04-06T12:03:53;100442.69;;;12.82;35.98
21203;BME280;10759;51.982;9.232;2023-04-06T12:06:21;100435.06;;;12.92;38.01
21203;BME280;10759;51.982;9.232;2023-04-06T12:08:50;100424.94;;;12.78;35.94
21203;BME280;10759;51.982;9.232;2023-04-06T12:11:18;100403.78;;;12.71;39.25
21203;BME280;10759;51.982;9.232;2023-04-06T12:13:48;100423.13;;;12.98;37.46
21203;BME280;10759;51.982;9.232;2023-04-06T12:16:16;100431.19;;;12.98;36.92
21203;BME280;10759;51.982;9.232;2023-04-06T12:18:46;100442.75;;;12.81;36.64
21203;BME280;10759;51.982;9.232;2023-04-06T12:21:15;100410.16;;;12.87;36.68
21203;BME280;10759;51.982;9.232;2023-04-06T12:23:43;100392.31;;;12.86;36.89
21203;BME280;10759;51.982;9.232;2023-04-06T12:26:11;100441.00;;;12.99;36.37
21203;BME280;10759;51.982;9.232;2023-04-06T12:28:39;100438.16;;;13.21;36.50
21203;BME280;10759;51.982;9.232;2023-04-06T12:31:07;100434.63;;;13.39;36.05
21203;BME280;10759;51.982;9.232;2023-04-06T12:33:41;100431.00;;;13.40;36.42
21203;BME280;10759;51.982;9.232;2023-04-06T12:36:12;100428.00;;;13.08;37.33
21203;BME280;10759;51.982;9.232;2023-04-06T12:38:41;100434.03;;;13.14;36.58
21203;BME280;10759;51.982;9.232;2023-04-06T12:41:12;100410.19;;;13.06;35.29
21203;BME280;10759;51.982;9.232;2023-04-06T12:43:41;100421.03;;;13.04;34.63
21203;BME280;10759;51.982;9.232;2023-04-06T12:46:09;100426.03;;;12.93;36.23
21203;BME280;10759;51.982;9.232;2023-04-06T12:48:38;100408.44;;;12.86;36.00
21203;BME280;10759;51.982;9.232;2023-04-06T12:51:06;100391.44;;;12.85;35.70
21203;BME280;10759;51.982;9.232;2023-04-06T12:53:35;100413.94;;;13.21;36.51
21203;BME280;10759;51.982;9.232;2023-04-06T12:56:11;100417.00;;;13.13;36.08
21203;BME280;10759;51.982;9.232;2023-04-06T12:58:39;100408.50;;;12.84;35.16
21203;BME280;10759;51.982;9.232;2023-04-06T13:01:09;100419.19;;;12.86;38.41
21203;BME280;10759;51.982;9.232;2023-04-06T13:03:37;100316.63;;;12.37;36.46
21203;BME280;10759;51.982;9.232;2023-04-06T13:06:05;100402.09;;;12.87;37.33
21203;BME280;10759;51.982;9.232;2023-04-06T13:08:34;100408.00;;;12.95;37.47
21203;BME280;10759;51.982;9.232;2023-04-06T13:11:05;100408.28;;;13.08;36.15
21203;BME280;10759;51.982;9.232;2023-04-06T13:13:35;100401.75;;;13.14;37.94
21203;BME280;10759;51.982;9.232;2023-04-06T13:16:05;100313.50;;;12.84;37.41